Time;durP1;ratioP1;P1;durP2;ratioP2;P2;SDS_P1;SDS_P2;PMS_P1;PMS_P2;Temp;Humidity;BMP_temperature;BMP_pressure;BME280_temperature;BME280_humidity;BME280_pressure;Samples;Min_cycle;Max_cycle;Signal;HPM_P1;HPM_P2
2021/08/01 00:00:11;;;;;;;2.35;1.90;;;;;;;19.52;51.10;100339.38;684942;28;914;-61
2021/08/01 00:00:38;;;;;;;2.70;1.80;;;;;;;19.48;51.27;100332.72;679927;28;161590;-60
2021/08/01 00:00:59;;;;;;;1.80;1.70;;;;;;;19.47;51.26;100337.38;682535;28;69432;-62
2021/08/01 00:01:21;;;;;;;2.08;1.88;;;;;;;19.46;51.25;100341.16;684409;28;2989;-62
2021/08/01 00:01:43;;;;;;;2.38;2.00;;;;;;;19.45;51.24;100334.88;684977;28;11387;-62
2021/08/01 00:02:05;;;;;;;2.20;1.90;;;;;;;19.45;51.28;100334.03;683740;28;44151;-62
2021/08/01 00:02:27;;;;;;;2.00;1.90;;;;;;;19.43;51.15;100342.47;684316;28;33737;-62
2021/08/01 00:02:48;;;;;;;2.00;1.90;;;;;;;19.43;51.38;100347.13;683714;28;41977;-62
2021/08/01 00:03:09;;;;;;;1.95;1.80;;;;;;;19.40;51.48;100337.53;684553;28;21227;-60
2021/08/01 00:03:32;;;;;;;2.05;1.88;;;;;;;19.38;51.39;100341.56;684703;28;23528;-62
2021/08/01 00:03:59;;;;;;;1.95;1.80;;;;;;;19.35;51.37;100342.06;682987;28;60687;-62
2021/08/01 00:04:20;;;;;;;1.95;1.80;;;;;;;19.35;51.57;100342.06;684490;28;12992;-62
2021/08/01 00:04:41;;;;;;;3.53;1.90;;;;;;;19.34;51.53;100343.97;684733;28;21420;-61
2021/08/01 00:05:05;;;;;;;2.42;1.80;;;;;;;19.32;51.71;100339.81;685357;28;859;-62
2021/08/01 00:05:26;;;;;;;2.60;1.90;;;;;;;19.31;51.57;100340.88;683103;28;69649;-62
2021/08/01 00:05:47;;;;;;;2.17;2.05;;;;;;;19.29;51.61;100343.88;684302;28;15078;-62
2021/08/01 00:06:09;;;;;;;2.35;2.00;;;;;;;19.30;51.75;100344.72;684972;28;6411;-61
2021/08/01 00:06:30;;;;;;;2.20;1.95;;;;;;;19.27;51.86;100340.53;684576;28;25187;-58
2021/08/01 00:06:52;;;;;;;1.85;1.75;;;;;;;19.26;51.67;100347.09;684483;28;23681;-62
2021/08/01 00:07:13;;;;;;;1.95;1.85;;;;;;;19.24;51.76;100341.84;683800;28;44372;-61
2021/08/01 00:07:34;;;;;;;1.88;1.77;;;;;;;19.24;51.89;100341.03;684519;28;22406;-62
2021/08/01 00:07:55;;;;;;;2.05;1.92;;;;;;;19.21;51.89;100345.09;683809;28;44375;-62
2021/08/01 00:08:16;;;;;;;2.00;1.80;;;;;;;19.22;51.88;100343.19;684736;28;18783;-62
2021/08/01 00:08:40;;;;;;;3.25;1.85;;;;;;;19.21;52.00;100333.31;685176;28;7246;-61
2021/08/01 00:09:01;;;;;;;2.08;1.95;;;;;;;19.20;52.10;100342.59;683030;28;69447;-63
2021/08/01 00:09:22;;;;;;;2.13;2.03;;;;;;;19.19;52.14;100347.25;684907;28;13880;-62
2021/08/01 00:09:43;;;;;;;2.28;1.90;;;;;;;19.17;52.14;100338.44;684910;28;14669;-61
2021/08/01 00:10:07;;;;;;;2.97;2.00;;;;;;;19.17;52.11;100346.66;684768;28;23402;-62
2021/08/01 00:10:29;;;;;;;2.00;1.80;;;;;;;19.17;52.27;100346.66;681471;28;107781;-62
2021/08/01 00:10:50;;;;;;;3.15;2.00;;;;;;;19.15;52.09;100347.97;683792;28;45222;-62
2021/08/01 00:11:11;;;;;;;3.28;2.10;;;;;;;19.14;52.26;100343.56;683787;28;21482;-63
2021/08/01 00:11:34;;;;;;;2.25;1.90;;;;;;;19.14;52.19;100340.81;684226;28;22471;-62
2021/08/01 00:11:55;;;;;;;2.55;1.98;;;;;;;19.13;52.30;100345.47;684068;28;32413;-62
2021/08/01 00:12:17;;;;;;;2.33;2.13;;;;;;;19.12;52.33;100342.97;685029;28;9252;-62
2021/08/01 00:12:40;;;;;;;2.17;2.00;;;;;;;19.12;52.31;100351.19;683670;28;46808;-62
2021/08/01 00:13:02;;;;;;;2.08;1.98;;;;;;;19.11;52.46;100344.03;682774;28;69346;-62
2021/08/01 00:13:23;;;;;;;2.05;1.95;;;;;;;19.11;52.48;100344.03;683864;28;43710;-62
2021/08/01 00:13:44;;;;;;;2.00;1.90;;;;;;;19.11;52.52;100347.63;683914;28;22442;-61
2021/08/01 00:14:05;;;;;;;2.00;1.90;;;;;;;19.08;52.34;100340.72;681382;29;26585;-62
2021/08/01 00:14:28;;;;;;;2.20;2.10;;;;;;;19.08;52.44;100342.66;681695;28;4449;-62
2021/08/01 00:14:50;;;;;;;2.30;2.20;;;;;;;19.08;52.66;100342.66;681786;29;17580;-62
2021/08/01 00:15:12;;;;;;;2.15;2.05;;;;;;;19.06;52.51;100342.88;679129;29;37485;-63
2021/08/01 00:15:33;;;;;;;2.20;1.80;;;;;;;19.05;52.54;100337.66;680769;29;41972;-63
2021/08/01 00:15:54;;;;;;;1.92;1.83;;;;;;;19.03;52.48;100337.91;682259;28;17484;-62
2021/08/01 00:16:16;;;;;;;2.13;2.03;;;;;;;19.01;52.65;100345.53;683981;28;22428;-62
2021/08/01 00:16:41;;;;;;;2.10;1.90;;;;;;;18.99;52.67;100339.44;683036;28;60870;-62
2021/08/01 00:17:02;;;;;;;2.13;1.92;;;;;;;18.99;52.76;100342.19;684512;28;22177;-62
2021/08/01 00:17:23;;;;;;;3.20;2.20;;;;;;;18.99;52.51;100344.91;684521;28;24408;-61
2021/08/01 00:17:47;;;;;;;2.03;1.92;;;;;;;18.99;52.80;100338.63;684309;28;22544;-62
2021/08/01 00:18:08;;;;;;;2.22;1.98;;;;;;;18.98;52.81;100337.81;682465;28;93050;-62
2021/08/01 00:18:29;;;;;;;2.30;2.10;;;;;;;18.98;52.67;100339.69;684490;28;21436;-62
2021/08/01 00:18:50;;;;;;;2.10;1.90;;;;;;;18.97;52.54;100332.56;684604;28;20067;-62
2021/08/01 00:19:12;;;;;;;2.00;1.90;;;;;;;18.96;52.72;100342.66;684306;28;21592;-61
2021/08/01 00:19:33;;;;;;;2.00;1.90;;;;;;;18.95;52.68;100331.97;682873;28;46516;-62
2021/08/01 00:19:54;;;;;;;2.00;1.90;;;;;;;18.93;52.84;100332.22;684469;28;16751;-62
2021/08/01 00:20:15;;;;;;;1.90;1.80;;;;;;;18.95;52.81;100341.03;685153;28;919;-61
2021/08/01 00:20:36;;;;;;;2.03;1.92;;;;;;;18.93;52.94;100334.13;685014;28;13563;-62
2021/08/01 00:20:58;;;;;;;2.33;1.90;;;;;;;18.93;52.92;100332.22;684270;28;23455;-62
2021/08/01 00:21:20;;;;;;;2.00;1.90;;;;;;;18.91;52.93;100329.72;683486;28;41261;-62
2021/08/01 00:21:41;;;;;;;2.72;2.00;;;;;;;18.91;52.75;100343.41;684461;28;22524;-62
2021/08/01 00:22:02;;;;;;;3.08;2.10;;;;;;;18.91;52.89;100340.66;684585;28;22400;-63
2021/08/01 00:22:24;;;;;;;2.03;1.92;;;;;;;18.91;52.83;100340.66;684561;28;23490;-62
2021/08/01 00:22:46;;;;;;;2.25;1.77;;;;;;;18.88;52.85;100341.13;682700;28;69230;-62
2021/08/01 00:23:07;;;;;;;2.25;1.95;;;;;;;18.89;52.87;100342.81;684772;28;21553;-62
2021/08/01 00:23:28;;;;;;;2.15;1.90;;;;;;;18.89;52.87;100340.09;684652;28;22397;-62
2021/08/01 00:23:50;;;;;;;2.50;1.90;;;;;;;18.89;53.12;100344.72;684659;28;19718;-62
2021/08/01 00:24:11;;;;;;;2.17;2.00;;;;;;;18.87;52.88;100344.97;684065;28;34613;-63
2021/08/01 00:24:32;;;;;;;2.20;2.00;;;;;;;18.88;53.22;100337.59;684269;28;21525;-62
2021/08/01 00:24:53;;;;;;;2.10;2.00;;;;;;;18.87;52.98;100346.84;684623;28;22424;-62
2021/08/01 00:25:14;;;;;;;1.92;1.83;;;;;;;18.87;53.01;100347.72;685479;28;871;-61
2021/08/01 00:25:36;;;;;;;1.88;1.77;;;;;;;18.86;52.94;100347.94;685116;28;9233;-61
2021/08/01 00:25:57;;;;;;;2.00;1.90;;;;;;;18.85;53.01;100338.06;682996;28;44995;-62
2021/08/01 00:26:19;;;;;;;2.13;1.90;;;;;;;18.84;52.94;100344.56;683326;28;46297;-62
2021/08/01 00:26:40;;;;;;;4.00;2.20;;;;;;;18.83;53.04;100341.00;685008;28;12030;-62
2021/08/01 00:27:02;;;;;;;2.42;2.00;;;;;;;18.83;53.02;100334.72;684079;28;21541;-62
2021/08/01 00:27:23;;;;;;;2.10;1.90;;;;;;;18.80;52.98;100338.75;683828;28;33360;-62
2021/08/01 00:27:45;;;;;;;1.90;1.80;;;;;;;18.83;52.85;100337.47;683484;28;46338;-62
2021/08/01 00:28:09;;;;;;;1.90;1.80;;;;;;;18.82;53.12;100338.53;684325;28;14994;-62
2021/08/01 00:28:31;;;;;;;1.95;1.85;;;;;;;18.83;53.00;100341.00;683909;28;31846;-62
2021/08/01 00:28:53;;;;;;;2.75;2.00;;;;;;;18.83;53.01;100335.53;683721;28;44286;-62
2021/08/01 00:29:14;;;;;;;2.58;2.00;;;;;;;18.83;53.08;100340.19;684423;28;23388;-61
2021/08/01 00:29:35;;;;;;;2.40;1.80;;;;;;;18.83;53.00;100327.34;684799;28;16264;-62
2021/08/01 00:29:57;;;;;;;3.00;2.00;;;;;;;18.83;53.08;100335.53;684621;28;23468;-62
2021/08/01 00:30:18;;;;;;;2.08;1.98;;;;;;;18.83;52.99;100330.06;683222;28;47400;-62
2021/08/01 00:30:39;;;;;;;2.20;2.00;;;;;;;18.85;52.94;100333.41;684227;28;24473;-61
2021/08/01 00:31:01;;;;;;;1.98;1.88;;;;;;;18.86;53.12;100334.28;684160;28;23437;-62
2021/08/01 00:31:23;;;;;;;2.47;2.00;;;;;;;18.86;53.26;100326.88;683009;28;44144;-62
2021/08/01 00:31:44;;;;;;;2.20;2.00;;;;;;;18.88;53.05;100335.66;683590;28;45275;-62
2021/08/01 00:32:06;;;;;;;2.00;1.90;;;;;;;18.88;52.96;100332.13;684420;28;22401;-62
2021/08/01 00:32:28;;;;;;;2.03;1.92;;;;;;;18.89;52.90;100336.53;682914;28;46220;-62
2021/08/01 00:32:51;;;;;;;2.35;2.15;;;;;;;18.88;53.21;100327.47;683960;28;23545;-61
2021/08/01 00:33:12;;;;;;;2.03;1.90;;;;;;;18.89;53.09;100331.06;681693;28;93019;-61
2021/08/01 00:33:33;;;;;;;2.00;1.90;;;;;;;18.90;53.09;100327.22;685021;28;1069;-61
2021/08/01 00:33:54;;;;;;;2.20;2.10;;;;;;;18.89;53.16;100328.31;685085;28;1005;-62
2021/08/01 00:34:17;;;;;;;2.47;2.15;;;;;;;18.90;53.06;100330.81;684816;28;1868;-61
2021/08/01 00:34:38;;;;;;;2.20;2.10;;;;;;;18.89;53.01;100331.06;682131;28;66548;-61
2021/08/01 00:35:00;;;;;;;2.33;2.13;;;;;;;18.89;53.15;100328.31;684529;28;20118;-61
2021/08/01 00:35:21;;;;;;;2.35;2.13;;;;;;;18.89;53.14;100329.13;684638;28;3267;-61
2021/08/01 00:35:42;;;;;;;2.10;2.00;;;;;;;18.89;53.14;100322.84;683661;28;23499;-62
2021/08/01 00:36:04;;;;;;;2.10;2.00;;;;;;;18.90;53.16;100324.47;684438;28;1878;-62
2021/08/01 00:36:25;;;;;;;2.25;2.08;;;;;;;18.89;52.89;100328.31;682744;28;69842;-61
2021/08/01 00:36:46;;;;;;;2.28;2.10;;;;;;;18.90;53.05;100324.47;684669;28;22374;-61
2021/08/01 00:37:07;;;;;;;2.30;2.10;;;;;;;18.89;52.99;100326.41;684597;28;22402;-61
2021/08/01 00:37:28;;;;;;;4.13;2.28;;;;;;;18.90;52.90;100324.47;684391;28;23424;-61
2021/08/01 00:37:50;;;;;;;2.10;2.00;;;;;;;18.91;53.02;100328.91;684785;28;14054;-61
2021/08/01 00:38:11;;;;;;;2.00;1.90;;;;;;;18.91;52.88;100328.91;684082;28;39029;-61
2021/08/01 00:38:32;;;;;;;2.38;2.10;;;;;;;18.91;52.96;100331.63;684255;28;23497;-60
2021/08/01 00:38:53;;;;;;;2.95;2.05;;;;;;;18.90;52.97;100329.97;684569;28;22413;-61
2021/08/01 00:39:15;;;;;;;1.98;1.88;;;;;;;18.91;53.19;100328.91;684627;28;1792;-61
2021/08/01 00:39:37;;;;;;;2.38;2.00;;;;;;;18.91;53.21;100334.38;684814;28;1330;-62
2021/08/01 00:40:09;;;;;;;2.55;2.20;;;;;;;18.89;52.95;100336.53;683040;28;61520;-61
2021/08/01 00:40:30;;;;;;;2.10;2.00;;;;;;;18.89;53.18;100334.59;682457;28;44217;-62
2021/08/01 00:40:52;;;;;;;2.80;1.90;;;;;;;18.90;53.08;100330.81;683997;28;23479;-61
2021/08/01 00:41:14;;;;;;;3.60;2.00;;;;;;;18.89;53.27;100342.00;684558;28;1193;-61
2021/08/01 00:41:40;;;;;;;2.20;1.92;;;;;;;18.90;53.12;100340.91;679206;29;60757;-61
2021/08/01 00:42:01;;;;;;;2.30;2.00;;;;;;;18.89;53.20;100342.81;681014;29;16799;-62
2021/08/01 00:42:23;;;;;;;2.00;1.90;;;;;;;18.89;53.11;100342.00;681616;28;21057;-61
2021/08/01 00:42:44;;;;;;;2.40;1.85;;;;;;;18.91;53.04;100340.66;683296;28;45262;-61
2021/08/01 00:43:06;;;;;;;2.35;1.83;;;;;;;18.90;52.96;100347.22;684371;28;24495;-62
2021/08/01 00:43:29;;;;;;;2.10;2.00;;;;;;;18.91;52.98;100348.03;683320;28;37959;-61
2021/08/01 00:43:50;;;;;;;2.20;2.10;;;;;;;18.91;53.04;100339.84;684543;28;64673;-62
2021/08/01 00:44:11;;;;;;;4.50;2.10;;;;;;;18.92;53.18;100344.25;683079;28;21544;-61
2021/08/01 00:44:32;;;;;;;2.53;1.90;;;;;;;18.91;53.02;100350.78;682540;28;15697;-62
2021/08/01 00:44:53;;;;;;;2.08;1.98;;;;;;;18.89;52.98;100336.53;683317;28;19570;-61
2021/08/01 00:45:16;;;;;;;2.60;2.10;;;;;;;18.91;52.89;100345.31;680832;28;14221;-62
2021/08/01 00:45:39;;;;;;;2.78;2.05;;;;;;;18.89;52.92;100345.56;681081;28;13508;-62
2021/08/01 00:46:10;;;;;;;3.47;2.47;;;;;;;18.87;52.97;100339.50;680093;28;99894;-62
2021/08/01 00:46:32;;;;;;;2.10;2.00;;;;;;;18.88;53.09;100335.66;683085;28;23578;-61
2021/08/01 00:46:54;;;;;;;2.10;2.00;;;;;;;18.87;52.95;100342.25;682145;29;1204;-61
2021/08/01 00:47:16;;;;;;;2.25;1.90;;;;;;;18.86;53.04;100342.47;684609;28;966;-62
2021/08/01 00:47:37;;;;;;;6.18;2.30;;;;;;;18.85;53.11;100341.63;684185;28;22397;-62
2021/08/01 00:48:00;;;;;;;2.72;2.10;;;;;;;18.86;53.15;100339.75;684200;28;23502;-61
2021/08/01 00:48:25;;;;;;;2.20;2.10;;;;;;;18.85;53.17;100332.59;680006;29;69532;-62
2021/08/01 00:48:46;;;;;;;2.28;2.08;;;;;;;18.85;53.02;100336.16;679400;28;115175;-62
2021/08/01 00:49:08;;;;;;;3.00;2.78;;;;;;;18.82;53.20;100331.13;683455;28;46348;-61
2021/08/01 00:49:30;;;;;;;2.85;2.65;;;;;;;18.82;53.33;100333.03;681414;29;21638;-62
2021/08/01 00:49:52;;;;;;;2.88;2.42;;;;;;;18.82;53.12;100330.31;678470;29;46138;-62
2021/08/01 00:50:14;;;;;;;2.40;2.20;;;;;;;18.81;53.30;100334.09;676216;29;45358;-62
2021/08/01 00:50:37;;;;;;;2.42;2.22;;;;;;;18.80;53.20;100332.47;675092;29;69437;-61
2021/08/01 00:50:58;;;;;;;2.20;2.05;;;;;;;18.79;53.29;100330.78;677022;29;1803;-62
2021/08/01 00:51:21;;;;;;;2.17;2.08;;;;;;;18.78;53.14;100329.97;676335;29;43187;-61
2021/08/01 00:51:42;;;;;;;2.55;2.35;;;;;;;18.75;53.58;100322.25;679975;29;25161;-61
2021/08/01 00:52:04;;;;;;;2.95;2.42;;;;;;;18.75;53.32;100324.97;681927;28;22132;-61
2021/08/01 00:52:25;;;;;;;2.15;2.05;;;;;;;18.75;53.46;100332.38;683405;28;70277;-61
2021/08/01 00:52:50;;;;;;;2.28;2.08;;;;;;;18.75;53.36;100327.72;686264;28;23542;-61
2021/08/01 00:53:14;;;;;;;2.17;2.08;;;;;;;18.74;53.27;100331.53;684332;28;95342;-61
2021/08/01 00:53:37;;;;;;;2.00;1.90;;;;;;;18.74;53.28;100326.03;682632;28;69440;-62
2021/08/01 00:53:59;;;;;;;1.90;1.80;;;;;;;18.75;53.41;100330.44;679042;29;27200;-61
2021/08/01 00:54:20;;;;;;;2.67;2.10;;;;;;;18.74;53.42;100326.03;676296;29;33576;-62
2021/08/01 00:54:43;;;;;;;2.90;1.92;;;;;;;18.73;53.53;100327.97;677868;29;43420;-59
2021/08/01 00:55:08;;;;;;;2.30;1.90;;;;;;;18.73;53.67;100329.88;674277;29;92066;-61
2021/08/01 00:55:29;;;;;;;2.20;2.00;;;;;;;18.73;53.58;100330.69;674979;29;90771;-61
2021/08/01 00:55:51;;;;;;;2.10;2.00;;;;;;;18.72;53.66;100323.56;680510;29;12715;-61
2021/08/01 00:56:15;;;;;;;2.13;2.03;;;;;;;18.73;53.46;100321.66;678370;29;59387;-61
2021/08/01 00:56:37;;;;;;;3.00;2.00;;;;;;;18.72;53.56;100329.03;677518;29;93389;-62
2021/08/01 00:57:00;;;;;;;2.45;2.00;;;;;;;18.72;53.74;100325.47;680754;28;45085;-62
2021/08/01 00:57:21;;;;;;;3.60;2.20;;;;;;;18.71;53.51;100316.44;679172;29;54158;-61
2021/08/01 00:57:43;;;;;;;2.63;2.10;;;;;;;18.72;53.63;100317.25;679297;29;45126;-61
2021/08/01 00:58:05;;;;;;;2.35;2.15;;;;;;;18.71;53.79;100319.16;677457;29;69465;-62
2021/08/01 00:58:27;;;;;;;2.08;1.98;;;;;;;18.71;53.74;100315.59;680143;28;44399;-62
2021/08/01 00:58:48;;;;;;;2.03;1.92;;;;;;;18.72;53.77;100314.53;679912;29;22397;-60
2021/08/01 00:59:10;;;;;;;1.92;1.83;;;;;;;18.72;53.67;100320.00;680313;28;11052;-62
2021/08/01 00:59:33;;;;;;;2.35;2.15;;;;;;;18.72;53.59;100317.25;682228;28;1283;-62
2021/08/01 00:59:54;;;;;;;2.83;2.10;;;;;;;18.72;53.63;100318.09;681784;28;46346;-62
2021/08/01 01:00:33;;;;;;;3.42;2.00;;;;;;;18.72;53.93;100317.25;682290;28;46347;-62
2021/08/01 01:01:10;;;;;;;4.32;2.40;;;;;;;18.72;53.73;100315.34;676048;28;136071;-61
2021/08/01 01:01:34;;;;;;;2.33;2.13;;;;;;;18.72;53.75;100309.88;674560;29;137519;-62
2021/08/01 01:02:00;;;;;;;2.20;2.10;;;;;;;18.72;53.87;100315.34;678468;29;37866;-62
2021/08/01 01:02:27;;;;;;;2.10;2.00;;;;;;;18.75;53.70;100315.97;678398;29;61687;-61
2021/08/01 01:02:51;;;;;;;2.17;2.08;;;;;;;18.76;53.76;100320.34;678504;29;38117;-63
2021/08/01 01:03:17;;;;;;;2.42;2.22;;;;;;;18.75;53.74;100308.56;679945;29;37826;-63
2021/08/01 01:03:44;;;;;;;2.50;1.90;;;;;;;18.76;53.66;100309.38;682002;28;86554;-62
2021/08/01 01:04:14;;;;;;;2.70;2.30;;;;;;;18.77;53.64;100322.00;679674;28;160711;-61
2021/08/01 01:04:43;;;;;;;2.50;2.10;;;;;;;18.77;53.52;100319.28;681204;28;136539;-62
2021/08/01 01:05:13;;;;;;;2.45;2.20;;;;;;;18.76;53.64;100321.19;688531;28;61488;-62
2021/08/01 01:05:37;;;;;;;2.30;2.10;;;;;;;18.76;53.72;100309.38;685353;28;138085;-62
2021/08/01 01:06:02;;;;;;;2.47;1.90;;;;;;;18.76;53.49;100323.06;686956;28;91714;-62
2021/08/01 01:06:34;;;;;;;2.20;2.10;;;;;;;18.76;53.81;100318.44;686096;28;86283;-62
2021/08/01 01:07:06;;;;;;;2.72;2.50;;;;;;;18.75;53.70;100322.25;686861;28;61387;-62
2021/08/01 01:07:33;;;;;;;2.40;2.20;;;;;;;18.73;53.90;100325.22;684104;28;138845;-62
2021/08/01 01:08:01;;;;;;;2.13;1.95;;;;;;;18.73;53.81;100324.41;683767;28;138206;-62
2021/08/01 01:08:52;;;;;;;4.40;2.30;;;;;;;18.72;53.79;100326.28;683221;28;138300;-62
2021/08/01 01:09:35;;;;;;;2.10;2.00;;;;;;;18.71;53.84;100330.13;682805;28;136936;-62
2021/08/01 01:10:18;;;;;;;2.67;2.15;;;;;;;18.68;53.82;100332.47;684883;28;158950;-62
2021/08/01 01:10:44;;;;;;;2.20;2.03;;;;;;;18.66;53.85;100329.16;685409;28;144603;-63
2021/08/01 01:11:39;;;;;;;2.25;2.15;;;;;;;18.62;54.17;100334.28;680072;28;105086;-62
2021/08/01 01:12:06;;;;;;;2.80;2.20;;;;;;;18.61;54.17;100326.31;685451;28;62725;-61
2021/08/01 01:12:32;;;;;;;4.18;2.38;;;;;;;18.59;53.87;100326.56;683585;28;92228;-61
2021/08/01 01:12:58;;;;;;;2.53;1.92;;;;;;;18.58;54.35;100324.06;678846;28;116108;-62
2021/08/01 01:13:24;;;;;;;2.00;1.90;;;;;;;18.57;54.11;100331.41;678964;28;139128;-62
2021/08/01 01:13:49;;;;;;;2.15;2.05;;;;;;;18.58;54.15;100332.28;679849;28;113734;-62
2021/08/01 01:14:20;;;;;;;2.13;2.03;;;;;;;18.56;54.31;100332.50;683264;28;81533;-62
2021/08/01 01:14:45;;;;;;;2.33;2.13;;;;;;;18.56;54.35;100332.50;677417;28;136390;-62
2021/08/01 01:15:20;;;;;;;1.90;1.80;;;;;;;18.54;54.40;100323.69;680050;29;61242;-62
2021/08/01 01:15:45;;;;;;;2.20;2.00;;;;;;;18.54;54.46;100340.09;677819;28;138136;-62
2021/08/01 01:16:06;;;;;;;2.10;2.00;;;;;;;18.53;54.46;100339.28;678402;28;92343;-62
2021/08/01 01:16:29;;;;;;;2.83;2.20;;;;;;;18.53;54.47;100333.00;676725;29;40875;-62
2021/08/01 01:16:56;;;;;;;2.30;2.10;;;;;;;18.50;54.58;100328.00;677890;28;77035;-62
2021/08/01 01:17:22;;;;;;;2.72;2.10;;;;;;;18.49;54.64;100331.78;677480;28;139372;-62
2021/08/01 01:17:46;;;;;;;2.30;2.00;;;;;;;18.46;54.42;100335.00;677216;29;138326;-60
2021/08/01 01:18:09;;;;;;;5.25;2.10;;;;;;;18.46;54.72;100335.84;679134;29;92087;-62
2021/08/01 01:18:33;;;;;;;2.20;2.00;;;;;;;18.46;54.73;100340.47;679985;28;69433;-62
2021/08/01 01:18:58;;;;;;;2.20;2.10;;;;;;;18.45;54.60;100331.44;679107;29;90126;-61
2021/08/01 01:19:40;;;;;;;2.10;2.00;;;;;;;18.45;54.71;100331.44;678722;29;57639;-62
2021/08/01 01:20:14;;;;;;;2.40;2.20;;;;;;;18.45;54.72;100330.59;676257;29;137723;-62
2021/08/01 01:20:48;;;;;;;2.00;1.90;;;;;;;18.42;54.87;100328.38;676753;29;135756;-62
2021/08/01 01:21:26;;;;;;;2.20;2.10;;;;;;;18.40;54.87;100331.34;674966;29;139788;-62
2021/08/01 01:21:52;;;;;;;2.38;2.17;;;;;;;18.39;54.98;100331.59;676470;28;135548;-62
2021/08/01 01:22:17;;;;;;;2.30;2.10;;;;;;;18.37;54.81;100329.09;676434;29;138149;-63
2021/08/01 01:23:13;;;;;;;2.28;2.10;;;;;;;18.33;55.13;100323.25;679662;28;137341;-62
2021/08/01 01:23:58;;;;;;;2.42;2.22;;;;;;;18.32;55.13;100329.81;680868;28;122189;-62
2021/08/01 01:24:40;;;;;;;2.55;2.20;;;;;;;18.31;55.33;100333.59;681428;28;125389;-62
2021/08/01 01:25:19;;;;;;;2.45;2.25;;;;;;;18.30;55.25;100337.38;679278;28;160688;-62
2021/08/01 01:25:44;;;;;;;2.10;2.00;;;;;;;18.29;55.30;100338.47;680674;28;115815;-61
2021/08/01 01:26:09;;;;;;;2.63;2.20;;;;;;;18.30;55.34;100339.31;679812;28;128246;-62
2021/08/01 01:26:36;;;;;;;2.40;2.03;;;;;;;18.29;55.37;100340.38;679879;28;138263;-62
2021/08/01 01:27:06;;;;;;;2.03;1.90;;;;;;;18.26;55.43;100335.38;680525;28;138874;-62
2021/08/01 01:27:32;;;;;;;3.80;2.25;;;;;;;18.26;55.43;100338.09;678998;28;138221;-62
2021/08/01 01:28:02;;;;;;;2.20;2.10;;;;;;;18.25;55.69;100341.94;678651;28;138069;-62
2021/08/01 01:28:30;;;;;;;2.40;2.20;;;;;;;18.23;55.81;100335.84;677907;28;157438;-62
2021/08/01 01:28:56;;;;;;;2.25;2.13;;;;;;;18.22;55.90;100343.22;679193;28;138962;-62
2021/08/01 01:29:20;;;;;;;2.07;1.93;;;;;;;18.22;55.83;100331.47;679953;28;132082;-61
2021/08/01 01:29:45;;;;;;;3.15;2.22;;;;;;;18.20;56.01;100337.16;684303;28;38573;-62
2021/08/01 01:30:09;;;;;;;6.03;2.10;;;;;;;18.21;55.59;100338.00;682092;28;38023;-61
2021/08/01 01:30:34;;;;;;;3.08;1.90;;;;;;;18.18;55.86;100333.81;678663;28;138504;-60
2021/08/01 01:31:06;;;;;;;2.75;2.55;;;;;;;18.18;55.72;100334.69;680969;28;67607;-62
2021/08/01 01:31:31;;;;;;;2.37;2.17;;;;;;;18.17;55.77;100334.91;678424;28;138619;-62
2021/08/01 01:32:08;;;;;;;2.35;2.25;;;;;;;18.17;55.96;100333.00;679502;28;98466;-62
2021/08/01 01:32:34;;;;;;;2.20;2.10;;;;;;;18.18;55.86;100333.81;678458;28;138392;-60
2021/08/01 01:33:03;;;;;;;2.90;2.58;;;;;;;18.18;55.88;100339.28;678970;28;129547;-61
2021/08/01 01:33:27;;;;;;;3.28;2.35;;;;;;;18.17;55.90;100329.44;678464;28;132979;-62
2021/08/01 01:34:01;;;;;;;2.55;2.30;;;;;;;18.17;55.75;100335.72;681298;28;61801;-62
2021/08/01 01:34:25;;;;;;;2.30;2.20;;;;;;;18.17;55.76;100337.66;676710;29;137635;-62
2021/08/01 01:34:53;;;;;;;2.40;2.20;;;;;;;18.17;55.85;100337.66;675634;29;93625;-62
2021/08/01 01:35:17;;;;;;;2.65;2.13;;;;;;;18.16;55.80;100333.25;674675;29;133103;-63
2021/08/01 01:35:46;;;;;;;3.58;2.40;;;;;;;18.17;55.76;100333.00;675316;28;138122;-61
2021/08/01 01:36:08;;;;;;;2.25;2.03;;;;;;;18.16;55.87;100334.06;676763;28;125416;-61
2021/08/01 01:36:31;;;;;;;2.00;1.90;;;;;;;18.17;56.01;100330.28;682852;28;46423;-61
2021/08/01 01:36:54;;;;;;;3.47;2.00;;;;;;;18.19;55.82;100336.31;679802;29;61690;-62
2021/08/01 01:37:18;;;;;;;2.97;2.28;;;;;;;18.18;55.76;100333.81;678617;29;36118;-62
2021/08/01 01:37:40;;;;;;;2.53;2.33;;;;;;;18.17;55.98;100338.47;676574;29;79025;-61
2021/08/01 01:38:08;;;;;;;2.20;2.00;;;;;;;18.16;55.92;100339.53;678506;28;111828;-60
2021/08/01 01:39:02;;;;;;;2.70;2.50;;;;;;;18.15;56.13;100329.69;675641;29;138451;-61
2021/08/01 01:39:36;;;;;;;2.90;2.15;;;;;;;18.14;56.02;100338.94;679178;28;124762;-62
2021/08/01 01:40:03;;;;;;;2.20;2.10;;;;;;;18.15;56.07;100331.56;680539;28;129425;-62
2021/08/01 01:40:44;;;;;;;2.45;2.20;;;;;;;18.13;56.11;100339.19;680771;28;138305;-62
2021/08/01 01:41:23;;;;;;;2.50;2.30;;;;;;;18.13;56.15;100333.72;679999;28;137415;-62
2021/08/01 01:41:58;;;;;;;2.08;1.98;;;;;;;18.13;56.18;100339.19;679790;28;137863;-62
2021/08/01 01:42:33;;;;;;;2.40;2.20;;;;;;;18.11;56.11;100336.69;677387;28;137776;-63
2021/08/01 01:42:57;;;;;;;2.88;2.15;;;;;;;18.11;56.26;100333.13;677681;28;138169;-61
2021/08/01 01:43:21;;;;;;;3.45;2.10;;;;;;;18.11;56.40;100342.16;682437;28;46343;-62
2021/08/01 01:43:43;;;;;;;2.65;2.10;;;;;;;18.08;56.33;100336.34;681872;28;69442;-62
2021/08/01 01:44:07;;;;;;;2.20;2.10;;;;;;;18.08;56.34;100342.63;679632;28;46443;-62
2021/08/01 01:44:28;;;;;;;2.25;2.05;;;;;;;18.07;56.45;100335.50;679407;28;70336;-61
2021/08/01 01:44:51;;;;;;;2.30;2.20;;;;;;;18.07;56.28;100331.94;682724;28;13943;-61
2021/08/01 01:45:17;;;;;;;2.10;2.00;;;;;;;18.06;56.38;100333.00;683719;28;1049;-62
2021/08/01 01:45:41;;;;;;;2.15;2.05;;;;;;;18.06;56.38;100333.00;678720;28;138768;-61
2021/08/01 01:46:03;;;;;;;2.42;2.25;;;;;;;18.04;56.33;100329.66;685489;28;14943;-61
2021/08/01 01:46:33;;;;;;;2.25;2.10;;;;;;;18.03;56.36;100333.47;684344;28;84485;-61
2021/08/01 01:46:55;;;;;;;2.35;2.15;;;;;;;18.04;56.31;100332.41;688356;28;52439;-61
2021/08/01 01:47:18;;;;;;;2.30;2.10;;;;;;;18.03;56.58;100330.75;688577;28;45391;-64
2021/08/01 01:47:40;;;;;;;2.33;2.20;;;;;;;18.01;56.68;100329.06;685267;28;15132;-62
2021/08/01 01:48:02;;;;;;;2.40;2.10;;;;;;;18.02;56.67;100324.44;684465;28;23490;-62
2021/08/01 01:48:24;;;;;;;2.30;2.20;;;;;;;18.01;56.89;100329.06;682099;28;68541;-62
2021/08/01 01:48:46;;;;;;;2.20;2.10;;;;;;;18.03;56.93;100328.03;680763;29;40421;-62
2021/08/01 01:49:11;;;;;;;2.03;1.92;;;;;;;18.04;56.98;100332.41;682272;28;1167;-62
2021/08/01 01:49:35;;;;;;;2.80;2.10;;;;;;;18.04;56.93;100332.41;676801;29;136059;-62
2021/08/01 01:49:58;;;;;;;2.55;2.33;;;;;;;18.06;57.29;100333.84;679449;29;32450;-62
2021/08/01 01:50:20;;;;;;;2.40;2.20;;;;;;;18.06;56.99;100324.81;680385;29;54672;-61
2021/08/01 01:50:43;;;;;;;2.30;2.10;;;;;;;18.07;57.10;100331.94;680075;29;33013;-62
2021/08/01 01:51:05;;;;;;;3.83;2.20;;;;;;;18.08;57.00;100322.66;676931;29;62030;-61
2021/08/01 01:51:27;;;;;;;2.50;2.20;;;;;;;18.08;56.99;100331.69;678462;29;46420;-61
2021/08/01 01:51:50;;;;;;;2.33;2.22;;;;;;;18.09;57.08;100332.53;682249;28;22476;-61
2021/08/01 01:52:16;;;;;;;2.22;2.03;;;;;;;18.11;57.09;100330.41;678420;29;107366;-62
2021/08/01 01:52:48;;;;;;;2.58;2.47;;;;;;;18.12;57.17;100330.16;678424;28;158868;-62
2021/08/01 01:53:09;;;;;;;2.40;2.20;;;;;;;18.14;56.93;100327.19;681093;28;113557;-62
2021/08/01 01:53:32;;;;;;;2.28;2.10;;;;;;;18.14;56.76;100325.28;686738;28;22382;-62
2021/08/01 01:53:53;;;;;;;2.40;2.30;;;;;;;18.15;56.82;100334.28;685040;28;69183;-62
2021/08/01 01:54:15;;;;;;;2.50;2.30;;;;;;;18.17;56.94;100330.28;687890;28;45247;-61
2021/08/01 01:54:37;;;;;;;2.28;2.05;;;;;;;18.17;56.74;100327.53;685338;28;44439;-62
2021/08/01 01:54:59;;;;;;;2.40;2.20;;;;;;;18.17;56.80;100327.53;686787;28;23441;-62
2021/08/01 01:55:29;;;;;;;2.88;2.30;;;;;;;18.19;56.48;100335.50;685451;28;61458;-61